sensor_id;sensor_type;location;lat;lon;timestamp;P1;durP1;ratioP1;P2;durP2;ratioP2
76171;SDS011;64929;51.178;4.138;2023-07-31T00:00:49;9.13;;;3.33;;
76171;SDS011;64929;51.178;4.138;2023-07-31T00:03:14;10.57;;;4.13;;
76171;SDS011;64929;51.178;4.138;2023-07-31T00:05:40;15.90;;;3.92;;
76171;SDS011;64929;51.178;4.138;2023-07-31T00:08:06;10.90;;;3.50;;
76171;SDS011;64929;51.178;4.138;2023-07-31T00:10:31;12.80;;;3.60;;
76171;SDS011;64929;51.178;4.138;2023-07-31T00:12:58;17.40;;;3.97;;
76171;SDS011;64929;51.178;4.138;2023-07-31T00:15:24;11.20;;;3.63;;
76171;SDS011;64929;51.178;4.138;2023-07-31T00:17:49;13.07;;;3.80;;
76171;SDS011;64929;51.178;4.138;2023-07-31T00:20:15;12.20;;;3.78;;
76171;SDS011;64929;51.178;4.138;2023-07-31T00:22:41;12.95;;;3.88;;
76171;SDS011;64929;51.178;4.138;2023-07-31T00:25:06;7.95;;;3.67;;
76171;SDS011;64929;51.178;4.138;2023-07-31T00:27:32;13.63;;;4.18;;
76171;SDS011;64929;51.178;4.138;2023-07-31T00:29:58;12.43;;;4.10;;
76171;SDS011;64929;51.178;4.138;2023-07-31T00:32:24;15.90;;;3.85;;
76171;SDS011;64929;51.178;4.138;2023-07-31T00:34:49;15.00;;;4.20;;
76171;SDS011;64929;51.178;4.138;2023-07-31T00:37:15;9.43;;;3.60;;
76171;SDS011;64929;51.178;4.138;2023-07-31T00:39:41;13.60;;;4.18;;
76171;SDS011;64929;51.178;4.138;2023-07-31T00:42:07;12.23;;;3.88;;
76171;SDS011;64929;51.178;4.138;2023-07-31T00:44:32;12.45;;;4.45;;
76171;SDS011;64929;51.178;4.138;2023-07-31T00:46:58;14.98;;;4.55;;
76171;SDS011;64929;51.178;4.138;2023-07-31T00:49:25;14.20;;;3.90;;
76171;SDS011;64929;51.178;4.138;2023-07-31T00:51:51;13.90;;;3.85;;
76171;SDS011;64929;51.178;4.138;2023-07-31T00:54:17;10.55;;;3.65;;
76171;SDS011;64929;51.178;4.138;2023-07-31T00:56:44;11.43;;;4.28;;
76171;SDS011;64929;51.178;4.138;2023-07-31T00:59:13;12.82;;;3.97;;
76171;SDS011;64929;51.178;4.138;2023-07-31T01:01:39;13.45;;;3.63;;
76171;SDS011;64929;51.178;4.138;2023-07-31T01:04:05;12.18;;;3.67;;
76171;SDS011;64929;51.178;4.138;2023-07-31T01:06:36;10.90;;;3.35;;
76171;SDS011;64929;51.178;4.138;2023-07-31T01:11:55;14.77;;;3.67;;
76171;SDS011;64929;51.178;4.138;2023-07-31T01:14:22;11.75;;;4.20;;
76171;SDS011;64929;51.178;4.138;2023-07-31T01:16:48;12.23;;;4.20;;
76171;SDS011;64929;51.178;4.138;2023-07-31T01:19:14;12.90;;;3.78;;
76171;SDS011;64929;51.178;4.138;2023-07-31T01:24:25;9.80;;;3.75;;
76171;SDS011;64929;51.178;4.138;2023-07-31T01:27:09;10.40;;;4.10;;
76171;SDS011;64929;51.178;4.138;2023-07-31T01:29:47;8.50;;;3.70;;
76171;SDS011;64929;51.178;4.138;2023-07-31T01:32:20;10.35;;;3.08;;
76171;SDS011;64929;51.178;4.138;2023-07-31T01:34:47;11.40;;;4.20;;
76171;SDS011;64929;51.178;4.138;2023-07-31T01:37:14;11.40;;;4.10;;
76171;SDS011;64929;51.178;4.138;2023-07-31T01:39:40;10.73;;;3.80;;
76171;SDS011;64929;51.178;4.138;2023-07-31T01:42:06;10.85;;;3.78;;
76171;SDS011;64929;51.178;4.138;2023-07-31T01:44:32;11.38;;;3.92;;
76171;SDS011;64929;51.178;4.138;2023-07-31T01:46:58;11.88;;;3.75;;
76171;SDS011;64929;51.178;4.138;2023-07-31T01:49:25;9.95;;;3.50;;
76171;SDS011;64929;51.178;4.138;2023-07-31T01:51:50;12.93;;;4.20;;
76171;SDS011;64929;51.178;4.138;2023-07-31T01:54:16;14.40;;;3.78;;
76171;SDS011;64929;51.178;4.138;2023-07-31T01:56:42;8.60;;;3.40;;
76171;SDS011;64929;51.178;4.138;2023-07-31T01:59:08;9.60;;;3.60;;
76171;SDS011;64929;51.178;4.138;2023-07-31T02:01:33;13.98;;;3.97;;
76171;SDS011;64929;51.178;4.138;2023-07-31T02:03:59;9.63;;;4.22;;
76171;SDS011;64929;51.178;4.138;2023-07-31T02:06:25;9.85;;;3.50;;
76171;SDS011;64929;51.178;4.138;2023-07-31T02:08:50;14.40;;;3.88;;
76171;SDS011;64929;51.178;4.138;2023-07-31T02:11:16;11.50;;;3.53;;
76171;SDS011;64929;51.178;4.138;2023-07-31T02:13:42;10.73;;;3.58;;
76171;SDS011;64929;51.178;4.138;2023-07-31T02:16:07;9.77;;;3.38;;
76171;SDS011;64929;51.178;4.138;2023-07-31T02:18:33;13.27;;;3.30;;
76171;SDS011;64929;51.178;4.138;2023-07-31T02:20:59;13.27;;;3.00;;
76171;SDS011;64929;51.178;4.138;2023-07-31T02:23:24;9.57;;;3.55;;
76171;SDS011;64929;51.178;4.138;2023-07-31T02:25:50;10.82;;;3.53;;
76171;SDS011;64929;51.178;4.138;2023-07-31T02:28:16;14.52;;;4.10;;
76171;SDS011;64929;51.178;4.138;2023-07-31T02:30:44;10.85;;;3.08;;
76171;SDS011;64929;51.178;4.138;2023-07-31T02:33:11;11.87;;;3.63;;
76171;SDS011;64929;51.178;4.138;2023-07-31T02:35:37;9.18;;;3.45;;
76171;SDS011;64929;51.178;4.138;2023-07-31T02:38:02;7.32;;;3.08;;
76171;SDS011;64929;51.178;4.138;2023-07-31T02:40:28;11.18;;;3.55;;
76171;SDS011;64929;51.178;4.138;2023-07-31T02:42:54;12.43;;;3.00;;
76171;SDS011;64929;51.178;4.138;2023-07-31T02:45:19;8.63;;;3.03;;
76171;SDS011;64929;51.178;4.138;2023-07-31T02:47:45;9.50;;;3.28;;
76171;SDS011;64929;51.178;4.138;2023-07-31T02:50:11;15.23;;;3.45;;
76171;SDS011;64929;51.178;4.138;2023-07-31T02:52:36;6.75;;;2.85;;
76171;SDS011;64929;51.178;4.138;2023-07-31T02:55:02;11.00;;;3.63;;
76171;SDS011;64929;51.178;4.138;2023-07-31T02:57:28;6.32;;;2.72;;
76171;SDS011;64929;51.178;4.138;2023-07-31T02:59:53;10.82;;;2.83;;
76171;SDS011;64929;51.178;4.138;2023-07-31T03:02:19;10.10;;;3.00;;
76171;SDS011;64929;51.178;4.138;2023-07-31T03:04:45;12.25;;;3.72;;
76171;SDS011;64929;51.178;4.138;2023-07-31T03:07:11;10.60;;;3.40;;
76171;SDS011;64929;51.178;4.138;2023-07-31T03:09:36;11.77;;;2.97;;
76171;SDS011;64929;51.178;4.138;2023-07-31T03:12:02;9.23;;;3.15;;
76171;SDS011;64929;51.178;4.138;2023-07-31T03:14:28;10.50;;;2.72;;
76171;SDS011;64929;51.178;4.138;2023-07-31T03:16:54;12.32;;;3.20;;
76171;SDS011;64929;51.178;4.138;2023-07-31T03:19:20;12.55;;;3.20;;
76171;SDS011;64929;51.178;4.138;2023-07-31T03:21:45;8.27;;;2.72;;
76171;SDS011;64929;51.178;4.138;2023-07-31T03:24:11;8.13;;;2.97;;
76171;SDS011;64929;51.178;4.138;2023-07-31T03:26:37;8.63;;;3.20;;
76171;SDS011;64929;51.178;4.138;2023-07-31T03:29:03;9.15;;;2.70;;
76171;SDS011;64929;51.178;4.138;2023-07-31T03:31:29;11.98;;;3.63;;
76171;SDS011;64929;51.178;4.138;2023-07-31T03:33:54;8.93;;;3.03;;
76171;SDS011;64929;51.178;4.138;2023-07-31T03:36:20;12.18;;;2.90;;
76171;SDS011;64929;51.178;4.138;2023-07-31T03:38:46;12.65;;;3.42;;
76171;SDS011;64929;51.178;4.138;2023-07-31T03:41:12;13.98;;;2.88;;
76171;SDS011;64929;51.178;4.138;2023-07-31T03:43:37;7.70;;;3.10;;
76171;SDS011;64929;51.178;4.138;2023-07-31T03:46:04;7.72;;;3.35;;
76171;SDS011;64929;51.178;4.138;2023-07-31T03:48:29;7.78;;;3.28;;
76171;SDS011;64929;51.178;4.138;2023-07-31T03:50:55;14.63;;;4.22;;
76171;SDS011;64929;51.178;4.138;2023-07-31T03:53:21;6.18;;;3.35;;
76171;SDS011;64929;51.178;4.138;2023-07-31T03:55:47;10.18;;;3.40;;
76171;SDS011;64929;51.178;4.138;2023-07-31T03:58:12;11.48;;;3.25;;
76171;SDS011;64929;51.178;4.138;2023-07-31T04:00:39;9.65;;;3.60;;
76171;SDS011;64929;51.178;4.138;2023-07-31T04:03:05;9.13;;;3.30;;
76171;SDS011;64929;51.178;4.138;2023-07-31T04:05:31;12.25;;;3.60;;
76171;SDS011;64929;51.178;4.138;2023-07-31T04:07:58;8.80;;;3.50;;
76171;SDS011;64929;51.178;4.138;2023-07-31T04:10:23;14.98;;;4.30;;
76171;SDS011;64929;51.178;4.138;2023-07-31T04:12:49;8.40;;;3.67;;
76171;SDS011;64929;51.178;4.138;2023-07-31T04:15:15;8.55;;;3.55;;
76171;SDS011;64929;51.178;4.138;2023-07-31T04:17:40;11.55;;;4.20;;
76171;SDS011;64929;51.178;4.138;2023-07-31T04:20:06;7.30;;;3.45;;
76171;SDS011;64929;51.178;4.138;2023-07-31T04:22:32;9.98;;;3.95;;
76171;SDS011;64929;51.178;4.138;2023-07-31T04:24:58;10.25;;;3.90;;
76171;SDS011;64929;51.178;4.138;2023-07-31T04:27:24;12.75;;;3.80;;
76171;SDS011;64929;51.178;4.138;2023-07-31T04:29:50;9.20;;;3.72;;
76171;SDS011;64929;51.178;4.138;2023-07-31T04:32:16;8.02;;;3.85;;
76171;SDS011;64929;51.178;4.138;2023-07-31T04:34:42;7.28;;;3.58;;
76171;SDS011;64929;51.178;4.138;2023-07-31T04:37:08;10.65;;;3.88;;
76171;SDS011;64929;51.178;4.138;2023-07-31T04:39:33;10.77;;;3.92;;
76171;SDS011;64929;51.178;4.138;2023-07-31T04:41:59;8.02;;;3.92;;
76171;SDS011;64929;51.178;4.138;2023-07-31T04:44:25;12.90;;;4.53;;
76171;SDS011;64929;51.178;4.138;2023-07-31T04:46:50;10.95;;;3.53;;
76171;SDS011;64929;51.178;4.138;2023-07-31T04:49:16;13.48;;;4.40;;
76171;SDS011;64929;51.178;4.138;2023-07-31T04:51:42;9.25;;;3.42;;
76171;SDS011;64929;51.178;4.138;2023-07-31T04:54:07;16.42;;;3.65;;
76171;SDS011;64929;51.178;4.138;2023-07-31T04:56:33;10.88;;;3.90;;
76171;SDS011;64929;51.178;4.138;2023-07-31T04:58:59;6.25;;;3.13;;
76171;SDS011;64929;51.178;4.138;2023-07-31T05:01:24;5.85;;;3.17;;
76171;SDS011;64929;51.178;4.138;2023-07-31T05:03:50;10.85;;;3.55;;
76171;SDS011;64929;51.178;4.138;2023-07-31T05:06:16;8.35;;;3.58;;
76171;SDS011;64929;51.178;4.138;2023-07-31T05:08:42;11.65;;;3.63;;
76171;SDS011;64929;51.178;4.138;2023-07-31T05:11:07;9.27;;;3.33;;
76171;SDS011;64929;51.178;4.138;2023-07-31T05:13:33;9.55;;;3.40;;
76171;SDS011;64929;51.178;4.138;2023-07-31T05:15:59;10.00;;;3.50;;
76171;SDS011;64929;51.178;4.138;2023-07-31T05:18:24;6.72;;;3.50;;
76171;SDS011;64929;51.178;4.138;2023-07-31T05:20:50;5.15;;;3.10;;
76171;SDS011;64929;51.178;4.138;2023-07-31T05:23:15;6.50;;;2.58;;
76171;SDS011;64929;51.178;4.138;2023-07-31T05:25:41;5.60;;;3.00;;
76171;SDS011;64929;51.178;4.138;2023-07-31T05:28:07;7.28;;;3.08;;
76171;SDS011;64929;51.178;4.138;2023-07-31T05:30:33;5.97;;;3.75;;
76171;SDS011;64929;51.178;4.138;2023-07-31T05:32:58;8.10;;;3.08;;
76171;SDS011;64929;51.178;4.138;2023-07-31T05:35:24;6.47;;;3.38;;
76171;SDS011;64929;51.178;4.138;2023-07-31T05:37:50;8.90;;;3.60;;
76171;SDS011;64929;51.178;4.138;2023-07-31T05:40:15;6.60;;;2.92;;
76171;SDS011;64929;51.178;4.138;2023-07-31T05:42:41;6.25;;;3.20;;
76171;SDS011;64929;51.178;4.138;2023-07-31T05:45:07;5.20;;;3.10;;
76171;SDS011;64929;51.178;4.138;2023-07-31T05:47:33;6.97;;;3.25;;
76171;SDS011;64929;51.178;4.138;2023-07-31T05:49:59;6.50;;;3.28;;
76171;SDS011;64929;51.178;4.138;2023-07-31T05:52:24;5.72;;;3.28;;
76171;SDS011;64929;51.178;4.138;2023-07-31T05:54:50;8.07;;;3.60;;
76171;SDS011;64929;51.178;4.138;2023-07-31T05:57:16;8.95;;;3.70;;
76171;SDS011;64929;51.178;4.138;2023-07-31T05:59:42;7.28;;;4.43;;
76171;SDS011;64929;51.178;4.138;2023-07-31T06:02:08;8.27;;;3.63;;
76171;SDS011;64929;51.178;4.138;2023-07-31T06:04:33;6.78;;;3.58;;
76171;SDS011;64929;51.178;4.138;2023-07-31T06:06:59;6.68;;;3.58;;
76171;SDS011;64929;51.178;4.138;2023-07-31T06:09:25;7.25;;;3.78;;
76171;SDS011;64929;51.178;4.138;2023-07-31T06:11:51;5.20;;;3.45;;
76171;SDS011;64929;51.178;4.138;2023-07-31T06:14:17;7.63;;;3.80;;
76171;SDS011;64929;51.178;4.138;2023-07-31T06:16:43;6.70;;;3.60;;
76171;SDS011;64929;51.178;4.138;2023-07-31T06:19:09;9.50;;;3.90;;
76171;SDS011;64929;51.178;4.138;2023-07-31T06:21:35;7.13;;;3.85;;
76171;SDS011;64929;51.178;4.138;2023-07-31T06:24:07;12.52;;;4.38;;
76171;SDS011;64929;51.178;4.138;2023-07-31T06:26:33;10.40;;;4.13;;
76171;SDS011;64929;51.178;4.138;2023-07-31T06:28:58;6.82;;;3.80;;
76171;SDS011;64929;51.178;4.138;2023-07-31T06:31:24;8.95;;;3.47;;
76171;SDS011;64929;51.178;4.138;2023-07-31T06:33:50;11.63;;;4.22;;
76171;SDS011;64929;51.178;4.138;2023-07-31T06:36:17;7.15;;;4.07;;
76171;SDS011;64929;51.178;4.138;2023-07-31T06:38:43;7.90;;;3.58;;
76171;SDS011;64929;51.178;4.138;2023-07-31T06:41:09;6.45;;;3.58;;
76171;SDS011;64929;51.178;4.138;2023-07-31T06:43:35;6.53;;;3.80;;
76171;SDS011;64929;51.178;4.138;2023-07-31T06:46:08;8.63;;;4.10;;
76171;SDS011;64929;51.178;4.138;2023-07-31T06:48:34;13.10;;;3.90;;
76171;SDS011;64929;51.178;4.138;2023-07-31T06:51:02;8.30;;;3.72;;
76171;SDS011;64929;51.178;4.138;2023-07-31T06:53:28;6.50;;;3.33;;
76171;SDS011;64929;51.178;4.138;2023-07-31T06:55:53;10.02;;;4.00;;
76171;SDS011;64929;51.178;4.138;2023-07-31T06:58:19;9.40;;;4.15;;
76171;SDS011;64929;51.178;4.138;2023-07-31T07:00:45;11.75;;;3.42;;
76171;SDS011;64929;51.178;4.138;2023-07-31T07:03:11;7.30;;;3.42;;
76171;SDS011;64929;51.178;4.138;2023-07-31T07:05:39;10.73;;;3.80;;
76171;SDS011;64929;51.178;4.138;2023-07-31T07:08:05;9.13;;;3.20;;
76171;SDS011;64929;51.178;4.138;2023-07-31T07:10:31;7.95;;;3.17;;
76171;SDS011;64929;51.178;4.138;2023-07-31T07:12:56;9.63;;;3.92;;
76171;SDS011;64929;51.178;4.138;2023-07-31T07:15:22;8.65;;;3.47;;
76171;SDS011;64929;51.178;4.138;2023-07-31T07:17:48;8.63;;;3.85;;
76171;SDS011;64929;51.178;4.138;2023-07-31T07:20:14;7.72;;;3.83;;
76171;SDS011;64929;51.178;4.138;2023-07-31T07:22:40;9.30;;;3.38;;
76171;SDS011;64929;51.178;4.138;2023-07-31T07:25:08;6.55;;;3.50;;
76171;SDS011;64929;51.178;4.138;2023-07-31T07:27:34;10.50;;;3.65;;
76171;SDS011;64929;51.178;4.138;2023-07-31T07:30:00;7.25;;;3.05;;
76171;SDS011;64929;51.178;4.138;2023-07-31T07:32:26;5.95;;;2.95;;
76171;SDS011;64929;51.178;4.138;2023-07-31T07:34:51;9.15;;;3.85;;
76171;SDS011;64929;51.178;4.138;2023-07-31T07:37:17;6.38;;;3.78;;
76171;SDS011;64929;51.178;4.138;2023-07-31T07:39:43;5.00;;;2.85;;
76171;SDS011;64929;51.178;4.138;2023-07-31T07:42:09;8.20;;;3.38;;
76171;SDS011;64929;51.178;4.138;2023-07-31T07:44:35;7.28;;;3.15;;
76171;SDS011;64929;51.178;4.138;2023-07-31T07:47:00;4.63;;;2.85;;
76171;SDS011;64929;51.178;4.138;2023-07-31T07:49:26;4.72;;;2.75;;
76171;SDS011;64929;51.178;4.138;2023-07-31T07:51:51;5.55;;;3.10;;
76171;SDS011;64929;51.178;4.138;2023-07-31T07:54:17;9.77;;;3.00;;
76171;SDS011;64929;51.178;4.138;2023-07-31T07:56:44;7.72;;;2.75;;
76171;SDS011;64929;51.178;4.138;2023-07-31T07:59:10;4.88;;;2.55;;
76171;SDS011;64929;51.178;4.138;2023-07-31T08:01:35;4.80;;;2.60;;
76171;SDS011;64929;51.178;4.138;2023-07-31T08:04:01;5.80;;;2.67;;
76171;SDS011;64929;51.178;4.138;2023-07-31T08:06:27;9.05;;;2.47;;
76171;SDS011;64929;51.178;4.138;2023-07-31T08:08:54;4.93;;;2.65;;
76171;SDS011;64929;51.178;4.138;2023-07-31T08:11:20;6.32;;;2.50;;
76171;SDS011;64929;51.178;4.138;2023-07-31T08:13:48;3.72;;;2.17;;
76171;SDS011;64929;51.178;4.138;2023-07-31T08:16:13;4.35;;;2.33;;
76171;SDS011;64929;51.178;4.138;2023-07-31T08:18:39;5.22;;;2.63;;
76171;SDS011;64929;51.178;4.138;2023-07-31T08:21:05;5.72;;;2.58;;
76171;SDS011;64929;51.178;4.138;2023-07-31T08:23:31;6.50;;;2.50;;
76171;SDS011;64929;51.178;4.138;2023-07-31T08:25:56;6.80;;;2.45;;
76171;SDS011;64929;51.178;4.138;2023-07-31T08:28:22;4.88;;;2.40;;
76171;SDS011;64929;51.178;4.138;2023-07-31T08:30:48;5.45;;;2.50;;
76171;SDS011;64929;51.178;4.138;2023-07-31T08:33:15;4.55;;;2.00;;
76171;SDS011;64929;51.178;4.138;2023-07-31T08:35:41;6.28;;;2.95;;
76171;SDS011;64929;51.178;4.138;2023-07-31T08:38:07;4.72;;;2.67;;
76171;SDS011;64929;51.178;4.138;2023-07-31T08:40:35;9.27;;;2.42;;
76171;SDS011;64929;51.178;4.138;2023-07-31T08:43:03;8.85;;;2.40;;
76171;SDS011;64929;51.178;4.138;2023-07-31T08:45:29;3.17;;;2.00;;
76171;SDS011;64929;51.178;4.138;2023-07-31T08:47:56;5.18;;;2.50;;
76171;SDS011;64929;51.178;4.138;2023-07-31T08:50:24;4.13;;;2.05;;
76171;SDS011;64929;51.178;4.138;2023-07-31T08:52:51;4.22;;;2.08;;
76171;SDS011;64929;51.178;4.138;2023-07-31T08:55:17;3.55;;;1.98;;
76171;SDS011;64929;51.178;4.138;2023-07-31T08:57:48;8.18;;;2.28;;
76171;SDS011;64929;51.178;4.138;2023-07-31T09:00:15;4.13;;;2.00;;
76171;SDS011;64929;51.178;4.138;2023-07-31T09:02:44;4.30;;;2.17;;
76171;SDS011;64929;51.178;4.138;2023-07-31T09:05:10;4.72;;;1.95;;
76171;SDS011;64929;51.178;4.138;2023-07-31T09:07:37;3.00;;;1.60;;
76171;SDS011;64929;51.178;4.138;2023-07-31T09:10:03;4.43;;;1.90;;
76171;SDS011;64929;51.178;4.138;2023-07-31T09:12:30;4.65;;;2.00;;
76171;SDS011;64929;51.178;4.138;2023-07-31T09:14:56;1.80;;;1.50;;
76171;SDS011;64929;51.178;4.138;2023-07-31T09:20:18;5.20;;;1.77;;
76171;SDS011;64929;51.178;4.138;2023-07-31T09:22:46;5.32;;;2.28;;
76171;SDS011;64929;51.178;4.138;2023-07-31T09:25:17;7.03;;;1.70;;
76171;SDS011;64929;51.178;4.138;2023-07-31T09:27:50;1.80;;;1.42;;
76171;SDS011;64929;51.178;4.138;2023-07-31T09:30:24;4.43;;;1.75;;
76171;SDS011;64929;51.178;4.138;2023-07-31T09:32:51;6.70;;;1.88;;
76171;SDS011;64929;51.178;4.138;2023-07-31T09:35:28;3.80;;;1.77;;
76171;SDS011;64929;51.178;4.138;2023-07-31T09:38:02;3.20;;;1.67;;
76171;SDS011;64929;51.178;4.138;2023-07-31T09:40:31;3.80;;;1.95;;
76171;SDS011;64929;51.178;4.138;2023-07-31T09:43:08;6.38;;;2.17;;
76171;SDS011;64929;51.178;4.138;2023-07-31T09:45:41;4.28;;;2.10;;
76171;SDS011;64929;51.178;4.138;2023-07-31T09:48:08;2.63;;;2.00;;
76171;SDS011;64929;51.178;4.138;2023-07-31T09:50:39;5.40;;;1.83;;
76171;SDS011;64929;51.178;4.138;2023-07-31T09:53:06;5.63;;;2.25;;
76171;SDS011;64929;51.178;4.138;2023-07-31T09:55:33;3.03;;;2.08;;
76171;SDS011;64929;51.178;4.138;2023-07-31T09:57:58;5.35;;;2.60;;
76171;SDS011;64929;51.178;4.138;2023-07-31T10:00:28;7.00;;;3.03;;
76171;SDS011;64929;51.178;4.138;2023-07-31T10:02:55;3.63;;;2.53;;
76171;SDS011;64929;51.178;4.138;2023-07-31T10:05:24;2.63;;;1.92;;
76171;SDS011;64929;51.178;4.138;2023-07-31T10:07:56;5.03;;;2.58;;
76171;SDS011;64929;51.178;4.138;2023-07-31T10:10:22;6.00;;;2.63;;
76171;SDS011;64929;51.178;4.138;2023-07-31T10:12:50;5.68;;;2.53;;
76171;SDS011;64929;51.178;4.138;2023-07-31T10:15:17;5.72;;;2.40;;
76171;SDS011;64929;51.178;4.138;2023-07-31T10:17:44;5.28;;;2.58;;
76171;SDS011;64929;51.178;4.138;2023-07-31T10:20:11;9.93;;;2.53;;
76171;SDS011;64929;51.178;4.138;2023-07-31T10:22:37;5.47;;;2.47;;
76171;SDS011;64929;51.178;4.138;2023-07-31T10:25:04;5.18;;;2.70;;
76171;SDS011;64929;51.178;4.138;2023-07-31T10:27:32;4.18;;;2.72;;
76171;SDS011;64929;51.178;4.138;2023-07-31T10:30:00;4.43;;;2.70;;
76171;SDS011;64929;51.178;4.138;2023-07-31T10:32:30;6.03;;;3.00;;
76171;SDS011;64929;51.178;4.138;2023-07-31T10:34:56;7.50;;;2.80;;
76171;SDS011;64929;51.178;4.138;2023-07-31T10:37:25;6.13;;;3.40;;
76171;SDS011;64929;51.178;4.138;2023-07-31T10:42:31;5.88;;;3.05;;
76171;SDS011;64929;51.178;4.138;2023-07-31T10:45:03;3.90;;;2.50;;
76171;SDS011;64929;51.178;4.138;2023-07-31T10:47:38;4.28;;;2.58;;
76171;SDS011;64929;51.178;4.138;2023-07-31T10:50:20;5.50;;;3.08;;
76171;SDS011;64929;51.178;4.138;2023-07-31T10:52:52;6.05;;;3.15;;
76171;SDS011;64929;51.178;4.138;2023-07-31T10:58:13;5.47;;;2.97;;
76171;SDS011;64929;51.178;4.138;2023-07-31T11:00:43;7.70;;;3.00;;
76171;SDS011;64929;51.178;4.138;2023-07-31T11:03:11;5.68;;;3.38;;
76171;SDS011;64929;51.178;4.138;2023-07-31T11:08:15;6.20;;;3.60;;
76171;SDS011;64929;51.178;4.138;2023-07-31T11:10:48;5.93;;;3.55;;
76171;SDS011;64929;51.178;4.138;2023-07-31T11:13:41;5.20;;;3.28;;
76171;SDS011;64929;51.178;4.138;2023-07-31T11:16:10;6.20;;;3.78;;
76171;SDS011;64929;51.178;4.138;2023-07-31T11:18:44;6.53;;;3.60;;
76171;SDS011;64929;51.178;4.138;2023-07-31T11:21:15;10.88;;;3.65;;
76171;SDS011;64929;51.178;4.138;2023-07-31T11:23:46;8.80;;;3.72;;
76171;SDS011;64929;51.178;4.138;2023-07-31T11:26:12;9.80;;;3.70;;
76171;SDS011;64929;51.178;4.138;2023-07-31T11:28:38;7.03;;;3.97;;
76171;SDS011;64929;51.178;4.138;2023-07-31T11:31:04;8.25;;;4.00;;
76171;SDS011;64929;51.178;4.138;2023-07-31T11:33:30;8.75;;;4.28;;
76171;SDS011;64929;51.178;4.138;2023-07-31T11:35:56;6.55;;;4.13;;
76171;SDS011;64929;51.178;4.138;2023-07-31T11:38:23;9.32;;;3.88;;
76171;SDS011;64929;51.178;4.138;2023-07-31T11:40:50;7.40;;;3.70;;
76171;SDS011;64929;51.178;4.138;2023-07-31T11:43:17;8.20;;;3.92;;
76171;SDS011;64929;51.178;4.138;2023-07-31T11:45:47;8.13;;;3.80;;
76171;SDS011;64929;51.178;4.138;2023-07-31T11:50:52;5.22;;;3.42;;
76171;SDS011;64929;51.178;4.138;2023-07-31T11:53:20;11.02;;;3.38;;
76171;SDS011;64929;51.178;4.138;2023-07-31T11:55:51;6.68;;;3.53;;
76171;SDS011;64929;51.178;4.138;2023-07-31T11:58:17;9.02;;;8.07;;
76171;SDS011;64929;51.178;4.138;2023-07-31T12:00:44;5.68;;;3.60;;
76171;SDS011;64929;51.178;4.138;2023-07-31T12:03:10;8.40;;;3.83;;
76171;SDS011;64929;51.178;4.138;2023-07-31T12:05:37;7.63;;;3.40;;
76171;SDS011;64929;51.178;4.138;2023-07-31T12:08:08;10.40;;;4.03;;
76171;SDS011;64929;51.178;4.138;2023-07-31T12:10:37;7.70;;;3.65;;
76171;SDS011;64929;51.178;4.138;2023-07-31T12:13:07;7.32;;;4.07;;
76171;SDS011;64929;51.178;4.138;2023-07-31T12:15:41;8.90;;;4.25;;
76171;SDS011;64929;51.178;4.138;2023-07-31T12:18:09;7.88;;;4.50;;
76171;SDS011;64929;51.178;4.138;2023-07-31T12:20:46;7.25;;;4.03;;
76171;SDS011;64929;51.178;4.138;2023-07-31T12:23:20;6.63;;;3.72;;
76171;SDS011;64929;51.178;4.138;2023-07-31T12:26:06;11.45;;;4.00;;
76171;SDS011;64929;51.178;4.138;2023-07-31T12:28:35;6.80;;;3.70;;
76171;SDS011;64929;51.178;4.138;2023-07-31T12:31:02;6.82;;;3.67;;
76171;SDS011;64929;51.178;4.138;2023-07-31T12:33:33;6.97;;;3.65;;
76171;SDS011;64929;51.178;4.138;2023-07-31T12:36:04;5.03;;;3.40;;
76171;SDS011;64929;51.178;4.138;2023-07-31T12:38:34;5.13;;;3.00;;
76171;SDS011;64929;51.178;4.138;2023-07-31T12:41:00;9.88;;;3.45;;
76171;SDS011;64929;51.178;4.138;2023-07-31T12:43:26;9.65;;;3.88;;
76171;SDS011;64929;51.178;4.138;2023-07-31T12:45:53;8.00;;;3.75;;
76171;SDS011;64929;51.178;4.138;2023-07-31T12:48:20;8.25;;;4.38;;
76171;SDS011;64929;51.178;4.138;2023-07-31T12:50:46;5.90;;;3.80;;
76171;SDS011;64929;51.178;4.138;2023-07-31T12:53:11;7.47;;;4.00;;
76171;SDS011;64929;51.178;4.138;2023-07-31T12:55:37;9.63;;;4.35;;
76171;SDS011;64929;51.178;4.138;2023-07-31T12:58:03;5.90;;;3.88;;
76171;SDS011;64929;51.178;4.138;2023-07-31T13:00:29;9.25;;;4.15;;
76171;SDS011;64929;51.178;4.138;2023-07-31T13:02:55;9.30;;;3.80;;
76171;SDS011;64929;51.178;4.138;2023-07-31T13:05:20;9.88;;;4.40;;
76171;SDS011;64929;51.178;4.138;2023-07-31T13:07:47;7.70;;;4.10;;
76171;SDS011;64929;51.178;4.138;2023-07-31T13:10:12;8.35;;;3.83;;
76171;SDS011;64929;51.178;4.138;2023-07-31T13:12:38;6.07;;;3.90;;
76171;SDS011;64929;51.178;4.138;2023-07-31T13:15:04;9.85;;;4.15;;
76171;SDS011;64929;51.178;4.138;2023-07-31T13:17:31;9.63;;;4.72;;
76171;SDS011;64929;51.178;4.138;2023-07-31T13:19:57;8.68;;;4.57;;
76171;SDS011;64929;51.178;4.138;2023-07-31T13:22:23;9.68;;;4.30;;
76171;SDS011;64929;51.178;4.138;2023-07-31T13:24:48;8.90;;;3.95;;
76171;SDS011;64929;51.178;4.138;2023-07-31T13:27:15;5.50;;;3.90;;
76171;SDS011;64929;51.178;4.138;2023-07-31T13:29:43;6.25;;;3.75;;
76171;SDS011;64929;51.178;4.138;2023-07-31T13:32:09;6.97;;;3.60;;
76171;SDS011;64929;51.178;4.138;2023-07-31T13:34:35;5.93;;;3.63;;
76171;SDS011;64929;51.178;4.138;2023-07-31T13:37:01;6.70;;;3.80;;
76171;SDS011;64929;51.178;4.138;2023-07-31T13:39:26;4.30;;;2.92;;
76171;SDS011;64929;51.178;4.138;2023-07-31T13:41:52;6.03;;;2.78;;
76171;SDS011;64929;51.178;4.138;2023-07-31T13:44:18;7.30;;;2.92;;
76171;SDS011;64929;51.178;4.138;2023-07-31T13:46:43;6.78;;;2.85;;
76171;SDS011;64929;51.178;4.138;2023-07-31T13:49:09;3.75;;;2.38;;
76171;SDS011;64929;51.178;4.138;2023-07-31T13:51:35;3.67;;;2.78;;
76171;SDS011;64929;51.178;4.138;2023-07-31T13:54:01;3.50;;;2.20;;
76171;SDS011;64929;51.178;4.138;2023-07-31T13:56:27;6.60;;;2.30;;
76171;SDS011;64929;51.178;4.138;2023-07-31T13:58:52;4.85;;;2.25;;
76171;SDS011;64929;51.178;4.138;2023-07-31T14:01:18;3.58;;;1.92;;
76171;SDS011;64929;51.178;4.138;2023-07-31T14:03:44;3.38;;;2.08;;
76171;SDS011;64929;51.178;4.138;2023-07-31T14:06:09;2.63;;;2.10;;
76171;SDS011;64929;51.178;4.138;2023-07-31T14:08:35;2.50;;;1.83;;
76171;SDS011;64929;51.178;4.138;2023-07-31T14:11:01;3.75;;;1.65;;
76171;SDS011;64929;51.178;4.138;2023-07-31T14:13:26;7.03;;;1.45;;
76171;SDS011;64929;51.178;4.138;2023-07-31T14:15:52;2.05;;;1.63;;
76171;SDS011;64929;51.178;4.138;2023-07-31T14:18:18;2.60;;;1.40;;
76171;SDS011;64929;51.178;4.138;2023-07-31T14:20:44;2.55;;;1.58;;
76171;SDS011;64929;51.178;4.138;2023-07-31T14:23:09;3.70;;;1.58;;
76171;SDS011;64929;51.178;4.138;2023-07-31T14:25:35;3.70;;;1.92;;
76171;SDS011;64929;51.178;4.138;2023-07-31T14:28:01;3.97;;;1.67;;
76171;SDS011;64929;51.178;4.138;2023-07-31T14:30:27;3.38;;;1.95;;
76171;SDS011;64929;51.178;4.138;2023-07-31T14:32:52;3.97;;;1.63;;
76171;SDS011;64929;51.178;4.138;2023-07-31T14:35:18;3.30;;;1.92;;
76171;SDS011;64929;51.178;4.138;2023-07-31T14:37:44;6.68;;;2.22;;
76171;SDS011;64929;51.178;4.138;2023-07-31T14:40:11;2.85;;;1.77;;
76171;SDS011;64929;51.178;4.138;2023-07-31T14:42:37;3.83;;;2.08;;
76171;SDS011;64929;51.178;4.138;2023-07-31T14:45:04;4.85;;;2.20;;
76171;SDS011;64929;51.178;4.138;2023-07-31T14:47:31;3.45;;;1.90;;
76171;SDS011;64929;51.178;4.138;2023-07-31T14:49:57;5.43;;;2.65;;
76171;SDS011;64929;51.178;4.138;2023-07-31T14:52:24;6.20;;;2.15;;
76171;SDS011;64929;51.178;4.138;2023-07-31T14:54:50;5.70;;;2.50;;
76171;SDS011;64929;51.178;4.138;2023-07-31T14:57:15;5.43;;;2.30;;
76171;SDS011;64929;51.178;4.138;2023-07-31T14:59:41;7.38;;;2.60;;